sensor_id;sensor_type;location;lat;lon;timestamp;P1;durP1;ratioP1;P2;durP2;ratioP2
81508;SDS011;70930;52.412;13.554;2023-07-31T00:01:28;3.25;;;1.65;;
81508;SDS011;70930;52.412;13.554;2023-07-31T00:04:13;3.53;;;1.40;;
81508;SDS011;70930;52.412;13.554;2023-07-31T00:06:59;2.72;;;1.30;;
81508;SDS011;70930;52.412;13.554;2023-07-31T00:09:44;3.10;;;1.40;;
81508;SDS011;70930;52.412;13.554;2023-07-31T00:12:29;3.47;;;1.40;;
81508;SDS011;70930;52.412;13.554;2023-07-31T00:15:15;3.40;;;1.52;;
81508;SDS011;70930;52.412;13.554;2023-07-31T00:18:00;4.15;;;1.58;;
81508;SDS011;70930;52.412;13.554;2023-07-31T00:20:46;5.47;;;1.52;;
81508;SDS011;70930;52.412;13.554;2023-07-31T00:23:32;4.40;;;1.65;;
81508;SDS011;70930;52.412;13.554;2023-07-31T00:26:17;2.55;;;1.67;;
81508;SDS011;70930;52.412;13.554;2023-07-31T00:29:02;4.40;;;1.88;;
81508;SDS011;70930;52.412;13.554;2023-07-31T00:31:48;3.28;;;1.90;;
81508;SDS011;70930;52.412;13.554;2023-07-31T00:34:33;5.22;;;1.92;;
81508;SDS011;70930;52.412;13.554;2023-07-31T00:37:19;2.55;;;1.60;;
81508;SDS011;70930;52.412;13.554;2023-07-31T00:40:04;2.92;;;1.90;;
81508;SDS011;70930;52.412;13.554;2023-07-31T00:42:50;4.60;;;2.00;;
81508;SDS011;70930;52.412;13.554;2023-07-31T00:45:35;4.10;;;2.13;;
81508;SDS011;70930;52.412;13.554;2023-07-31T00:48:21;3.75;;;1.70;;
81508;SDS011;70930;52.412;13.554;2023-07-31T00:51:07;3.65;;;2.00;;
81508;SDS011;70930;52.412;13.554;2023-07-31T00:53:53;5.07;;;1.92;;
81508;SDS011;70930;52.412;13.554;2023-07-31T00:56:40;3.97;;;2.05;;
81508;SDS011;70930;52.412;13.554;2023-07-31T00:59:29;4.40;;;1.95;;
81508;SDS011;70930;52.412;13.554;2023-07-31T01:02:14;4.88;;;2.45;;
81508;SDS011;70930;52.412;13.554;2023-07-31T01:05:00;4.20;;;1.88;;
81508;SDS011;70930;52.412;13.554;2023-07-31T01:07:52;4.18;;;2.35;;
81508;SDS011;70930;52.412;13.554;2023-07-31T01:10:51;2.92;;;1.88;;
81508;SDS011;70930;52.412;13.554;2023-07-31T01:13:44;3.95;;;2.15;;
81508;SDS011;70930;52.412;13.554;2023-07-31T01:16:30;2.97;;;2.30;;
81508;SDS011;70930;52.412;13.554;2023-07-31T01:19:16;6.18;;;2.38;;
81508;SDS011;70930;52.412;13.554;2023-07-31T01:25:26;4.35;;;2.08;;
81508;SDS011;70930;52.412;13.554;2023-07-31T01:28:24;3.63;;;2.20;;
81508;SDS011;70930;52.412;13.554;2023-07-31T01:31:18;4.13;;;2.45;;
81508;SDS011;70930;52.412;13.554;2023-07-31T01:34:08;3.60;;;2.13;;
81508;SDS011;70930;52.412;13.554;2023-07-31T01:36:55;5.82;;;2.10;;
81508;SDS011;70930;52.412;13.554;2023-07-31T01:39:42;5.07;;;2.80;;
81508;SDS011;70930;52.412;13.554;2023-07-31T01:42:27;5.55;;;2.67;;
81508;SDS011;70930;52.412;13.554;2023-07-31T01:45:12;4.30;;;2.63;;
81508;SDS011;70930;52.412;13.554;2023-07-31T01:47:58;4.10;;;2.25;;
81508;SDS011;70930;52.412;13.554;2023-07-31T01:50:43;5.78;;;2.53;;
81508;SDS011;70930;52.412;13.554;2023-07-31T01:53:29;5.13;;;2.97;;
81508;SDS011;70930;52.412;13.554;2023-07-31T01:56:16;5.45;;;2.50;;
81508;SDS011;70930;52.412;13.554;2023-07-31T01:59:01;5.57;;;2.35;;
81508;SDS011;70930;52.412;13.554;2023-07-31T02:01:47;5.88;;;2.78;;
81508;SDS011;70930;52.412;13.554;2023-07-31T02:04:32;4.07;;;2.33;;
81508;SDS011;70930;52.412;13.554;2023-07-31T02:07:18;5.05;;;2.80;;
81508;SDS011;70930;52.412;13.554;2023-07-31T02:10:03;4.57;;;2.15;;
81508;SDS011;70930;52.412;13.554;2023-07-31T02:12:49;4.85;;;2.35;;
81508;SDS011;70930;52.412;13.554;2023-07-31T02:15:34;6.55;;;3.00;;
81508;SDS011;70930;52.412;13.554;2023-07-31T02:18:20;4.97;;;2.75;;
81508;SDS011;70930;52.412;13.554;2023-07-31T02:21:05;4.53;;;3.33;;
81508;SDS011;70930;52.412;13.554;2023-07-31T02:23:50;5.72;;;3.30;;
81508;SDS011;70930;52.412;13.554;2023-07-31T02:26:36;4.25;;;2.47;;
81508;SDS011;70930;52.412;13.554;2023-07-31T02:29:21;7.07;;;3.05;;
81508;SDS011;70930;52.412;13.554;2023-07-31T02:32:07;5.43;;;3.40;;
81508;SDS011;70930;52.412;13.554;2023-07-31T02:34:52;4.75;;;2.85;;
81508;SDS011;70930;52.412;13.554;2023-07-31T02:37:37;4.57;;;3.15;;
81508;SDS011;70930;52.412;13.554;2023-07-31T02:40:24;4.45;;;2.88;;
81508;SDS011;70930;52.412;13.554;2023-07-31T02:43:09;6.82;;;3.47;;
81508;SDS011;70930;52.412;13.554;2023-07-31T02:45:55;4.03;;;2.80;;
81508;SDS011;70930;52.412;13.554;2023-07-31T02:48:40;5.03;;;3.80;;
81508;SDS011;70930;52.412;13.554;2023-07-31T02:51:26;4.72;;;3.00;;
81508;SDS011;70930;52.412;13.554;2023-07-31T02:54:11;4.57;;;3.17;;
81508;SDS011;70930;52.412;13.554;2023-07-31T02:56:56;7.05;;;4.07;;
81508;SDS011;70930;52.412;13.554;2023-07-31T02:59:42;6.28;;;3.47;;
81508;SDS011;70930;52.412;13.554;2023-07-31T03:02:27;6.90;;;3.95;;
81508;SDS011;70930;52.412;13.554;2023-07-31T03:05:13;6.60;;;4.05;;
81508;SDS011;70930;52.412;13.554;2023-07-31T03:07:58;6.90;;;4.25;;
81508;SDS011;70930;52.412;13.554;2023-07-31T03:10:43;6.97;;;4.65;;
81508;SDS011;70930;52.412;13.554;2023-07-31T03:13:29;6.82;;;4.30;;
81508;SDS011;70930;52.412;13.554;2023-07-31T03:16:14;7.40;;;3.50;;
81508;SDS011;70930;52.412;13.554;2023-07-31T03:18:59;8.50;;;5.05;;
81508;SDS011;70930;52.412;13.554;2023-07-31T03:21:45;7.60;;;3.92;;
81508;SDS011;70930;52.412;13.554;2023-07-31T03:24:30;7.78;;;5.07;;
81508;SDS011;70930;52.412;13.554;2023-07-31T03:27:16;8.48;;;3.85;;
81508;SDS011;70930;52.412;13.554;2023-07-31T03:30:02;5.68;;;4.20;;
81508;SDS011;70930;52.412;13.554;2023-07-31T03:32:48;12.00;;;4.18;;
81508;SDS011;70930;52.412;13.554;2023-07-31T03:35:33;4.20;;;3.22;;
81508;SDS011;70930;52.412;13.554;2023-07-31T03:38:19;6.88;;;3.70;;
81508;SDS011;70930;52.412;13.554;2023-07-31T03:41:04;7.00;;;4.05;;
81508;SDS011;70930;52.412;13.554;2023-07-31T03:43:51;5.32;;;4.15;;
81508;SDS011;70930;52.412;13.554;2023-07-31T03:46:42;6.80;;;4.07;;
81508;SDS011;70930;52.412;13.554;2023-07-31T03:49:28;7.03;;;3.92;;
81508;SDS011;70930;52.412;13.554;2023-07-31T03:52:13;7.93;;;3.78;;
81508;SDS011;70930;52.412;13.554;2023-07-31T03:54:59;5.78;;;3.35;;
81508;SDS011;70930;52.412;13.554;2023-07-31T03:57:44;7.47;;;3.58;;
81508;SDS011;70930;52.412;13.554;2023-07-31T04:00:29;6.53;;;3.67;;
81508;SDS011;70930;52.412;13.554;2023-07-31T04:03:15;8.70;;;3.33;;
81508;SDS011;70930;52.412;13.554;2023-07-31T04:06:00;6.68;;;3.70;;
81508;SDS011;70930;52.412;13.554;2023-07-31T04:08:46;6.75;;;3.40;;
81508;SDS011;70930;52.412;13.554;2023-07-31T04:11:31;5.93;;;3.70;;
81508;SDS011;70930;52.412;13.554;2023-07-31T04:14:16;6.00;;;3.67;;
81508;SDS011;70930;52.412;13.554;2023-07-31T04:17:02;6.72;;;4.10;;
81508;SDS011;70930;52.412;13.554;2023-07-31T04:19:47;7.53;;;3.47;;
81508;SDS011;70930;52.412;13.554;2023-07-31T04:22:33;7.97;;;4.32;;
81508;SDS011;70930;52.412;13.554;2023-07-31T04:25:18;5.28;;;3.30;;
81508;SDS011;70930;52.412;13.554;2023-07-31T04:28:03;6.85;;;3.03;;
81508;SDS011;70930;52.412;13.554;2023-07-31T04:30:49;4.35;;;3.10;;
81508;SDS011;70930;52.412;13.554;2023-07-31T04:33:34;6.85;;;3.33;;
81508;SDS011;70930;52.412;13.554;2023-07-31T04:36:20;9.45;;;3.90;;
81508;SDS011;70930;52.412;13.554;2023-07-31T04:39:05;6.38;;;3.42;;
81508;SDS011;70930;52.412;13.554;2023-07-31T04:41:51;6.30;;;3.63;;
81508;SDS011;70930;52.412;13.554;2023-07-31T04:44:36;7.38;;;3.42;;
81508;SDS011;70930;52.412;13.554;2023-07-31T04:47:21;6.40;;;3.13;;
81508;SDS011;70930;52.412;13.554;2023-07-31T04:50:07;7.75;;;3.80;;
81508;SDS011;70930;52.412;13.554;2023-07-31T04:52:53;5.47;;;3.78;;
81508;SDS011;70930;52.412;13.554;2023-07-31T04:55:38;5.85;;;2.70;;
81508;SDS011;70930;52.412;13.554;2023-07-31T04:58:23;5.90;;;3.05;;
81508;SDS011;70930;52.412;13.554;2023-07-31T05:01:09;6.97;;;3.35;;
81508;SDS011;70930;52.412;13.554;2023-07-31T05:03:54;7.43;;;3.72;;
81508;SDS011;70930;52.412;13.554;2023-07-31T05:06:40;9.52;;;3.85;;
81508;SDS011;70930;52.412;13.554;2023-07-31T05:09:26;7.25;;;3.33;;
81508;SDS011;70930;52.412;13.554;2023-07-31T05:12:11;7.85;;;3.50;;
81508;SDS011;70930;52.412;13.554;2023-07-31T05:14:56;5.63;;;3.50;;
81508;SDS011;70930;52.412;13.554;2023-07-31T05:17:42;7.50;;;3.13;;
81508;SDS011;70930;52.412;13.554;2023-07-31T05:20:27;6.97;;;3.22;;
81508;SDS011;70930;52.412;13.554;2023-07-31T05:23:13;6.18;;;2.60;;
81508;SDS011;70930;52.412;13.554;2023-07-31T05:26:05;4.43;;;2.78;;
81508;SDS011;70930;52.412;13.554;2023-07-31T05:28:51;11.60;;;3.30;;
81508;SDS011;70930;52.412;13.554;2023-07-31T05:31:36;6.68;;;2.75;;
81508;SDS011;70930;52.412;13.554;2023-07-31T05:34:23;6.88;;;3.03;;
81508;SDS011;70930;52.412;13.554;2023-07-31T05:37:10;6.65;;;3.40;;
81508;SDS011;70930;52.412;13.554;2023-07-31T05:39:56;5.55;;;2.97;;
81508;SDS011;70930;52.412;13.554;2023-07-31T05:42:42;7.18;;;2.90;;
81508;SDS011;70930;52.412;13.554;2023-07-31T05:45:27;5.90;;;3.15;;
81508;SDS011;70930;52.412;13.554;2023-07-31T05:48:12;5.03;;;3.17;;
81508;SDS011;70930;52.412;13.554;2023-07-31T05:50:58;6.25;;;3.10;;
81508;SDS011;70930;52.412;13.554;2023-07-31T05:53:43;7.72;;;2.95;;
81508;SDS011;70930;52.412;13.554;2023-07-31T05:56:29;6.47;;;3.00;;
81508;SDS011;70930;52.412;13.554;2023-07-31T05:59:15;6.93;;;3.00;;
81508;SDS011;70930;52.412;13.554;2023-07-31T06:02:01;5.82;;;3.00;;
81508;SDS011;70930;52.412;13.554;2023-07-31T06:04:47;8.15;;;3.40;;
81508;SDS011;70930;52.412;13.554;2023-07-31T06:07:32;7.00;;;2.70;;
81508;SDS011;70930;52.412;13.554;2023-07-31T06:10:18;6.43;;;2.70;;
81508;SDS011;70930;52.412;13.554;2023-07-31T06:13:03;5.65;;;2.20;;
81508;SDS011;70930;52.412;13.554;2023-07-31T06:15:49;5.85;;;2.83;;
81508;SDS011;70930;52.412;13.554;2023-07-31T06:18:34;6.72;;;2.80;;
81508;SDS011;70930;52.412;13.554;2023-07-31T06:21:19;8.75;;;3.38;;
81508;SDS011;70930;52.412;13.554;2023-07-31T06:24:05;7.45;;;3.58;;
81508;SDS011;70930;52.412;13.554;2023-07-31T06:26:51;5.22;;;3.28;;
81508;SDS011;70930;52.412;13.554;2023-07-31T06:29:36;5.57;;;2.78;;
81508;SDS011;70930;52.412;13.554;2023-07-31T06:32:22;7.45;;;3.58;;
81508;SDS011;70930;52.412;13.554;2023-07-31T06:35:07;6.65;;;2.78;;
81508;SDS011;70930;52.412;13.554;2023-07-31T06:37:53;4.97;;;2.42;;
81508;SDS011;70930;52.412;13.554;2023-07-31T06:40:38;7.95;;;3.05;;
81508;SDS011;70930;52.412;13.554;2023-07-31T06:43:24;7.13;;;3.30;;
81508;SDS011;70930;52.412;13.554;2023-07-31T06:46:09;6.28;;;2.80;;
81508;SDS011;70930;52.412;13.554;2023-07-31T06:48:56;6.35;;;2.55;;
81508;SDS011;70930;52.412;13.554;2023-07-31T06:51:41;7.65;;;2.72;;
81508;SDS011;70930;52.412;13.554;2023-07-31T06:54:27;7.15;;;2.60;;
81508;SDS011;70930;52.412;13.554;2023-07-31T06:57:12;4.18;;;3.17;;
81508;SDS011;70930;52.412;13.554;2023-07-31T06:59:58;4.53;;;2.80;;
81508;SDS011;70930;52.412;13.554;2023-07-31T07:02:43;11.23;;;4.05;;
81508;SDS011;70930;52.412;13.554;2023-07-31T07:05:29;7.07;;;2.95;;
81508;SDS011;70930;52.412;13.554;2023-07-31T07:08:14;8.25;;;3.28;;
81508;SDS011;70930;52.412;13.554;2023-07-31T07:11:00;4.32;;;2.65;;
81508;SDS011;70930;52.412;13.554;2023-07-31T07:13:45;10.07;;;3.70;;
81508;SDS011;70930;52.412;13.554;2023-07-31T07:16:32;6.13;;;3.00;;
81508;SDS011;70930;52.412;13.554;2023-07-31T07:19:17;8.27;;;3.33;;
81508;SDS011;70930;52.412;13.554;2023-07-31T07:22:02;9.45;;;3.75;;
81508;SDS011;70930;52.412;13.554;2023-07-31T07:24:48;6.57;;;3.38;;
81508;SDS011;70930;52.412;13.554;2023-07-31T07:27:33;7.95;;;3.63;;
81508;SDS011;70930;52.412;13.554;2023-07-31T07:30:19;7.68;;;4.03;;
81508;SDS011;70930;52.412;13.554;2023-07-31T07:33:05;7.03;;;3.40;;
81508;SDS011;70930;52.412;13.554;2023-07-31T07:35:50;5.53;;;3.53;;
81508;SDS011;70930;52.412;13.554;2023-07-31T07:38:36;6.78;;;2.75;;
81508;SDS011;70930;52.412;13.554;2023-07-31T07:41:22;4.97;;;3.00;;
81508;SDS011;70930;52.412;13.554;2023-07-31T07:44:07;6.65;;;3.10;;
81508;SDS011;70930;52.412;13.554;2023-07-31T07:46:53;7.72;;;3.72;;
81508;SDS011;70930;52.412;13.554;2023-07-31T07:49:38;4.15;;;2.70;;
81508;SDS011;70930;52.412;13.554;2023-07-31T07:52:24;5.65;;;3.00;;
81508;SDS011;70930;52.412;13.554;2023-07-31T07:55:09;4.55;;;2.63;;
81508;SDS011;70930;52.412;13.554;2023-07-31T07:57:55;6.57;;;3.53;;
81508;SDS011;70930;52.412;13.554;2023-07-31T08:00:40;5.18;;;3.35;;
81508;SDS011;70930;52.412;13.554;2023-07-31T08:03:26;6.07;;;2.75;;
81508;SDS011;70930;52.412;13.554;2023-07-31T08:06:11;5.90;;;2.05;;
81508;SDS011;70930;52.412;13.554;2023-07-31T08:08:56;5.80;;;3.03;;
81508;SDS011;70930;52.412;13.554;2023-07-31T08:11:42;4.47;;;2.78;;
81508;SDS011;70930;52.412;13.554;2023-07-31T08:14:27;4.95;;;2.58;;
81508;SDS011;70930;52.412;13.554;2023-07-31T08:17:13;4.82;;;3.10;;
81508;SDS011;70930;52.412;13.554;2023-07-31T08:19:58;5.00;;;3.10;;
81508;SDS011;70930;52.412;13.554;2023-07-31T08:22:44;5.00;;;2.85;;
81508;SDS011;70930;52.412;13.554;2023-07-31T08:25:29;5.13;;;2.78;;
81508;SDS011;70930;52.412;13.554;2023-07-31T08:28:15;4.72;;;3.13;;
81508;SDS011;70930;52.412;13.554;2023-07-31T08:31:00;6.15;;;3.22;;
81508;SDS011;70930;52.412;13.554;2023-07-31T08:33:45;5.25;;;3.22;;
81508;SDS011;70930;52.412;13.554;2023-07-31T08:36:31;6.88;;;3.28;;
81508;SDS011;70930;52.412;13.554;2023-07-31T08:39:16;10.15;;;3.67;;
81508;SDS011;70930;52.412;13.554;2023-07-31T08:42:01;3.97;;;2.90;;
81508;SDS011;70930;52.412;13.554;2023-07-31T08:44:47;7.53;;;3.10;;
81508;SDS011;70930;52.412;13.554;2023-07-31T08:47:33;5.07;;;3.20;;
81508;SDS011;70930;52.412;13.554;2023-07-31T08:50:20;6.32;;;2.83;;
81508;SDS011;70930;52.412;13.554;2023-07-31T08:53:06;5.40;;;3.20;;
81508;SDS011;70930;52.412;13.554;2023-07-31T08:55:52;5.68;;;2.70;;
81508;SDS011;70930;52.412;13.554;2023-07-31T08:58:41;4.45;;;2.65;;
81508;SDS011;70930;52.412;13.554;2023-07-31T09:01:27;5.10;;;3.03;;
81508;SDS011;70930;52.412;13.554;2023-07-31T09:04:16;5.55;;;2.95;;
81508;SDS011;70930;52.412;13.554;2023-07-31T09:07:04;5.60;;;2.72;;
81508;SDS011;70930;52.412;13.554;2023-07-31T09:09:50;3.20;;;2.60;;
81508;SDS011;70930;52.412;13.554;2023-07-31T09:12:35;5.47;;;2.30;;
81508;SDS011;70930;52.412;13.554;2023-07-31T09:15:21;4.65;;;2.10;;
81508;SDS011;70930;52.412;13.554;2023-07-31T09:18:09;4.80;;;2.00;;
81508;SDS011;70930;52.412;13.554;2023-07-31T09:21:04;2.47;;;1.95;;
81508;SDS011;70930;52.412;13.554;2023-07-31T09:23:51;4.25;;;1.80;;
81508;SDS011;70930;52.412;13.554;2023-07-31T09:26:39;2.80;;;1.50;;
81508;SDS011;70930;52.412;13.554;2023-07-31T09:29:24;2.25;;;1.50;;
81508;SDS011;70930;52.412;13.554;2023-07-31T09:32:17;3.28;;;1.20;;
81508;SDS011;70930;52.412;13.554;2023-07-31T09:35:12;1.42;;;1.30;;
81508;SDS011;70930;52.412;13.554;2023-07-31T09:38:11;1.02;;;0.93;;
81508;SDS011;70930;52.412;13.554;2023-07-31T09:40:58;2.33;;;1.00;;
81508;SDS011;70930;52.412;13.554;2023-07-31T09:43:52;1.23;;;0.90;;
81508;SDS011;70930;52.412;13.554;2023-07-31T09:46:38;1.17;;;0.80;;
81508;SDS011;70930;52.412;13.554;2023-07-31T09:49:24;2.00;;;0.90;;
81508;SDS011;70930;52.412;13.554;2023-07-31T09:52:11;4.05;;;1.10;;
81508;SDS011;70930;52.412;13.554;2023-07-31T09:57:43;5.78;;;2.00;;
81508;SDS011;70930;52.412;13.554;2023-07-31T10:00:31;4.68;;;2.20;;
81508;SDS011;70930;52.412;13.554;2023-07-31T10:03:17;4.00;;;2.00;;
81508;SDS011;70930;52.412;13.554;2023-07-31T10:06:03;3.97;;;2.58;;
81508;SDS011;70930;52.412;13.554;2023-07-31T10:08:50;2.88;;;2.17;;
81508;SDS011;70930;52.412;13.554;2023-07-31T10:11:38;3.15;;;2.35;;
81508;SDS011;70930;52.412;13.554;2023-07-31T10:14:36;5.03;;;2.47;;
81508;SDS011;70930;52.412;13.554;2023-07-31T10:17:22;4.13;;;2.40;;
81508;SDS011;70930;52.412;13.554;2023-07-31T10:20:08;4.38;;;2.40;;
81508;SDS011;70930;52.412;13.554;2023-07-31T10:22:55;4.68;;;2.38;;
81508;SDS011;70930;52.412;13.554;2023-07-31T10:28:27;5.38;;;2.70;;
81508;SDS011;70930;52.412;13.554;2023-07-31T10:31:14;7.68;;;3.70;;
81508;SDS011;70930;52.412;13.554;2023-07-31T10:36:48;6.45;;;3.17;;
81508;SDS011;70930;52.412;13.554;2023-07-31T10:39:35;6.03;;;3.33;;
81508;SDS011;70930;52.412;13.554;2023-07-31T10:42:27;6.00;;;3.45;;
81508;SDS011;70930;52.412;13.554;2023-07-31T10:45:23;7.15;;;3.38;;
81508;SDS011;70930;52.412;13.554;2023-07-31T10:48:13;6.00;;;3.67;;
81508;SDS011;70930;52.412;13.554;2023-07-31T10:51:00;6.40;;;3.28;;
81508;SDS011;70930;52.412;13.554;2023-07-31T10:53:45;5.47;;;3.50;;
81508;SDS011;70930;52.412;13.554;2023-07-31T10:56:33;6.30;;;3.47;;
81508;SDS011;70930;52.412;13.554;2023-07-31T10:59:26;5.30;;;3.40;;
81508;SDS011;70930;52.412;13.554;2023-07-31T11:02:23;4.85;;;2.85;;
81508;SDS011;70930;52.412;13.554;2023-07-31T11:05:15;6.15;;;2.95;;
81508;SDS011;70930;52.412;13.554;2023-07-31T11:08:00;6.28;;;3.38;;
81508;SDS011;70930;52.412;13.554;2023-07-31T11:13:48;6.22;;;2.47;;
81508;SDS011;70930;52.412;13.554;2023-07-31T11:16:37;5.38;;;3.03;;
81508;SDS011;70930;52.412;13.554;2023-07-31T11:19:26;6.03;;;2.75;;
81508;SDS011;70930;52.412;13.554;2023-07-31T11:22:11;4.03;;;2.70;;
81508;SDS011;70930;52.412;13.554;2023-07-31T11:24:57;5.32;;;2.70;;
81508;SDS011;70930;52.412;13.554;2023-07-31T11:27:43;5.20;;;2.38;;
81508;SDS011;70930;52.412;13.554;2023-07-31T11:30:28;5.05;;;2.58;;
81508;SDS011;70930;52.412;13.554;2023-07-31T11:33:14;4.85;;;2.35;;
81508;SDS011;70930;52.412;13.554;2023-07-31T11:35:59;6.80;;;2.80;;
81508;SDS011;70930;52.412;13.554;2023-07-31T11:38:45;5.20;;;2.72;;
81508;SDS011;70930;52.412;13.554;2023-07-31T11:41:30;3.58;;;2.42;;
81508;SDS011;70930;52.412;13.554;2023-07-31T11:44:15;3.65;;;2.40;;
81508;SDS011;70930;52.412;13.554;2023-07-31T11:47:01;2.70;;;1.98;;
81508;SDS011;70930;52.412;13.554;2023-07-31T11:49:46;4.65;;;2.53;;
81508;SDS011;70930;52.412;13.554;2023-07-31T11:52:38;4.78;;;2.60;;
81508;SDS011;70930;52.412;13.554;2023-07-31T11:55:27;4.20;;;2.50;;
81508;SDS011;70930;52.412;13.554;2023-07-31T11:58:13;4.68;;;2.42;;
81508;SDS011;70930;52.412;13.554;2023-07-31T12:01:00;4.35;;;2.20;;
81508;SDS011;70930;52.412;13.554;2023-07-31T12:03:46;3.78;;;2.10;;
81508;SDS011;70930;52.412;13.554;2023-07-31T12:06:33;4.85;;;2.30;;
81508;SDS011;70930;52.412;13.554;2023-07-31T12:09:19;5.70;;;2.67;;
81508;SDS011;70930;52.412;13.554;2023-07-31T12:12:08;4.93;;;2.58;;
81508;SDS011;70930;52.412;13.554;2023-07-31T12:14:54;4.15;;;2.60;;
81508;SDS011;70930;52.412;13.554;2023-07-31T12:17:40;5.22;;;2.35;;
81508;SDS011;70930;52.412;13.554;2023-07-31T12:20:25;3.80;;;2.22;;
81508;SDS011;70930;52.412;13.554;2023-07-31T12:23:18;5.05;;;2.55;;
81508;SDS011;70930;52.412;13.554;2023-07-31T12:26:15;7.05;;;2.72;;
81508;SDS011;70930;52.412;13.554;2023-07-31T12:29:01;5.30;;;2.63;;
81508;SDS011;70930;52.412;13.554;2023-07-31T12:31:46;5.93;;;2.30;;
81508;SDS011;70930;52.412;13.554;2023-07-31T12:34:41;4.88;;;2.03;;
81508;SDS011;70930;52.412;13.554;2023-07-31T12:37:28;3.90;;;2.17;;
81508;SDS011;70930;52.412;13.554;2023-07-31T12:40:14;4.43;;;2.40;;
81508;SDS011;70930;52.412;13.554;2023-07-31T12:43:02;4.97;;;2.03;;
81508;SDS011;70930;52.412;13.554;2023-07-31T12:45:48;3.83;;;2.05;;
81508;SDS011;70930;52.412;13.554;2023-07-31T12:48:34;3.90;;;1.83;;
81508;SDS011;70930;52.412;13.554;2023-07-31T12:51:20;3.65;;;1.52;;
81508;SDS011;70930;52.412;13.554;2023-07-31T12:54:06;3.58;;;1.90;;
81508;SDS011;70930;52.412;13.554;2023-07-31T12:56:52;3.63;;;1.92;;
81508;SDS011;70930;52.412;13.554;2023-07-31T12:59:37;3.30;;;1.77;;
81508;SDS011;70930;52.412;13.554;2023-07-31T13:02:23;2.65;;;1.85;;
81508;SDS011;70930;52.412;13.554;2023-07-31T13:05:08;4.72;;;2.20;;
81508;SDS011;70930;52.412;13.554;2023-07-31T13:07:54;4.15;;;2.25;;
81508;SDS011;70930;52.412;13.554;2023-07-31T13:10:39;3.05;;;1.90;;
81508;SDS011;70930;52.412;13.554;2023-07-31T13:13:24;4.35;;;2.05;;
81508;SDS011;70930;52.412;13.554;2023-07-31T13:16:10;5.45;;;2.72;;
81508;SDS011;70930;52.412;13.554;2023-07-31T13:18:56;5.32;;;2.88;;
81508;SDS011;70930;52.412;13.554;2023-07-31T13:21:41;4.30;;;2.65;;
81508;SDS011;70930;52.412;13.554;2023-07-31T13:24:26;2.97;;;1.98;;
81508;SDS011;70930;52.412;13.554;2023-07-31T13:27:12;5.20;;;2.40;;
81508;SDS011;70930;52.412;13.554;2023-07-31T13:29:57;4.13;;;2.40;;
81508;SDS011;70930;52.412;13.554;2023-07-31T13:32:42;6.13;;;2.35;;
81508;SDS011;70930;52.412;13.554;2023-07-31T13:35:28;5.53;;;2.35;;
81508;SDS011;70930;52.412;13.554;2023-07-31T13:38:13;5.22;;;2.72;;
81508;SDS011;70930;52.412;13.554;2023-07-31T13:40:59;4.80;;;2.75;;
81508;SDS011;70930;52.412;13.554;2023-07-31T13:43:44;6.63;;;2.17;;
81508;SDS011;70930;52.412;13.554;2023-07-31T13:46:29;5.63;;;2.05;;
81508;SDS011;70930;52.412;13.554;2023-07-31T13:49:15;5.25;;;2.60;;
81508;SDS011;70930;52.412;13.554;2023-07-31T13:52:01;5.82;;;2.42;;
81508;SDS011;70930;52.412;13.554;2023-07-31T13:54:47;6.15;;;2.58;;
81508;SDS011;70930;52.412;13.554;2023-07-31T13:57:32;5.35;;;2.60;;
81508;SDS011;70930;52.412;13.554;2023-07-31T14:00:18;4.00;;;2.45;;
81508;SDS011;70930;52.412;13.554;2023-07-31T14:03:03;5.45;;;2.40;;
81508;SDS011;70930;52.412;13.554;2023-07-31T14:05:49;3.60;;;2.47;;
81508;SDS011;70930;52.412;13.554;2023-07-31T14:08:37;4.95;;;2.30;;
81508;SDS011;70930;52.412;13.554;2023-07-31T14:11:22;3.75;;;2.55;;
81508;SDS011;70930;52.412;13.554;2023-07-31T14:14:08;5.00;;;2.70;;
81508;SDS011;70930;52.412;13.554;2023-07-31T14:16:54;4.63;;;2.72;;
81508;SDS011;70930;52.412;13.554;2023-07-31T14:19:40;5.85;;;3.30;;
81508;SDS011;70930;52.412;13.554;2023-07-31T14:22:29;5.13;;;2.58;;
81508;SDS011;70930;52.412;13.554;2023-07-31T14:25:15;7.18;;;3.38;;
81508;SDS011;70930;52.412;13.554;2023-07-31T14:28:00;4.28;;;2.40;;
81508;SDS011;70930;52.412;13.554;2023-07-31T14:30:46;5.18;;;2.88;;
81508;SDS011;70930;52.412;13.554;2023-07-31T14:33:31;4.97;;;3.15;;
81508;SDS011;70930;52.412;13.554;2023-07-31T14:36:17;3.72;;;2.92;;
81508;SDS011;70930;52.412;13.554;2023-07-31T14:39:02;5.03;;;2.70;;
81508;SDS011;70930;52.412;13.554;2023-07-31T14:41:47;5.10;;;2.80;;
81508;SDS011;70930;52.412;13.554;2023-07-31T14:44:33;5.75;;;2.65;;
81508;SDS011;70930;52.412;13.554;2023-07-31T14:47:18;4.22;;;2.72;;
81508;SDS011;70930;52.412;13.554;2023-07-31T14:50:04;6.80;;;3.20;;
81508;SDS011;70930;52.412;13.554;2023-07-31T14:52:50;4.25;;;2.40;;
81508;SDS011;70930;52.412;13.554;2023-07-31T14:55:35;4.95;;;2.42;;
81508;SDS011;70930;52.412;13.554;2023-07-31T14:58:21;4.68;;;2.67;;
81508;SDS011;70930;52.412;13.554;2023-07-31T15:01:06;5.07;;;2.88;;
81508;SDS011;70930;52.412;13.554;2023-07-31T15:03:52;4.28;;;2.72;;
81508;SDS011;70930;52.412;13.554;2023-07-31T15:06:37;4.35;;;2.67;;
81508;SDS011;70930;52.412;13.554;2023-07-31T15:09:22;5.95;;;2.78;;
81508;SDS011;70930;52.412;13.554;2023-07-31T15:12:08;5.43;;;2.72;;
81508;SDS011;70930;52.412;13.554;2023-07-31T15:14:53;6.15;;;2.65;;
81508;SDS011;70930;52.412;13.554;2023-07-31T15:17:39;4.95;;;2.17;;
81508;SDS011;70930;52.412;13.554;2023-07-31T15:20:24;5.65;;;2.70;;
81508;SDS011;70930;52.412;13.554;2023-07-31T15:23:10;4.55;;;2.72;;
81508;SDS011;70930;52.412;13.554;2023-07-31T15:25:55;4.68;;;2.92;;
81508;SDS011;70930;52.412;13.554;2023-07-31T15:28:41;3.78;;;2.80;;
81508;SDS011;70930;52.412;13.554;2023-07-31T15:31:26;6.10;;;2.47;;
81508;SDS011;70930;52.412;13.554;2023-07-31T15:34:12;6.28;;;3.25;;
81508;SDS011;70930;52.412;13.554;2023-07-31T15:36:58;4.40;;;2.63;;
81508;SDS011;70930;52.412;13.554;2023-07-31T15:39:44;4.00;;;2.50;;
81508;SDS011;70930;52.412;13.554;2023-07-31T15:42:29;4.30;;;2.92;;
81508;SDS011;70930;52.412;13.554;2023-07-31T15:45:15;6.55;;;3.50;;
81508;SDS011;70930;52.412;13.554;2023-07-31T15:48:00;4.72;;;2.70;;
81508;SDS011;70930;52.412;13.554;2023-07-31T15:50:46;5.20;;;3.10;;
81508;SDS011;70930;52.412;13.554;2023-07-31T15:53:31;5.35;;;2.88;;
81508;SDS011;70930;52.412;13.554;2023-07-31T15:56:17;4.10;;;2.50;;
81508;SDS011;70930;52.412;13.554;2023-07-31T15:59:02;4.63;;;2.90;;
81508;SDS011;70930;52.412;13.554;2023-07-31T16:01:48;4.60;;;2.63;;
81508;SDS011;70930;52.412;13.554;2023-07-31T16:04:33;6.43;;;2.83;;
81508;SDS011;70930;52.412;13.554;2023-07-31T16:07:18;5.80;;;2.80;;
81508;SDS011;70930;52.412;13.554;2023-07-31T16:10:06;5.10;;;2.72;;
81508;SDS011;70930;52.412;13.554;2023-07-31T16:12:52;7.30;;;3.10;;
81508;SDS011;70930;52.412;13.554;2023-07-31T16:15:38;4.28;;;2.63;;
81508;SDS011;70930;52.412;13.554;2023-07-31T16:18:23;4.63;;;2.90;;
81508;SDS011;70930;52.412;13.554;2023-07-31T16:21:08;4.57;;;2.70;;
81508;SDS011;70930;52.412;13.554;2023-07-31T16:23:54;8.43;;;2.58;;
81508;SDS011;70930;52.412;13.554;2023-07-31T16:26:40;5.22;;;2.80;;
81508;SDS011;70930;52.412;13.554;2023-07-31T16:29:25;3.65;;;2.20;;
81508;SDS011;70930;52.412;13.554;2023-07-31T16:32:11;4.57;;;2.50;;
81508;SDS011;70930;52.412;13.554;2023-07-31T16:34:56;4.55;;;2.55;;
81508;SDS011;70930;52.412;13.554;2023-07-31T16:37:41;3.78;;;2.40;;
81508;SDS011;70930;52.412;13.554;2023-07-31T16:40:29;4.53;;;2.63;;